Etusivu
METAR-TAF:

METAR-TAF

Lentoasemat :

Røros, Norja

Leveyspiiri: 62-35N, Pituuspiiri: 011-21E, korkeus merenpinnasta: 626 m

Tämänhetkinen sää

Tämä raportti tehtiin 34 minuuttia sitten, kello 09.20 UTC
Tuuli 7 kn idästä
Lämpötila -2°C
Kosteus 100%
Ilmanpaine 1008 hPa
Näkyvyys 10 km tai enemmän
heikkoa lumisadetta

METAR: ENRO 170920Z AUTO 10007KT 9999NDV -SN FEW030/// OVC056/// M02/M02 Q1008

Aika: 10:54 (09:54 UTC)


TAF: puuttuu

Säähavainnot ja -ennusteet yli 4000 lentoasemalta (METAR- ja TAF-raportit).

Käytössä olevat sääasemat on merkitty karttaan keltaisilla ja punaisilla pisteillä.

Aseta hiiri pisteen päälle nähdäksesi sääaseman nimen.

Klikkaa sitten nähdäksesi säähavainnot ja -ennusteet.

Kartan vaihtaminen: klikkaa mustalla rastilla varustettuja vihreitä pisteitä, niin voit zoomata sisään; viivalla varustettua vihreää pistettä, niin voit zoomata ulos tai vihreitä nuolia, niin pääset viereisille kartoille.


METAR-TAF: